Time;durP1;ratioP1;P1;durP2;ratioP2;P2;SDS_P1;SDS_P2;PMS_P1;PMS_P2;Temp;Humidity;BMP_temperature;BMP_pressure;BME280_temperature;BME280_humidity;BME280_pressure;Samples;Min_cycle;Max_cycle;Signal;HPM_P1;HPM_P2
2023/10/03 00:01:43;;;;;;;45.45;29.17;;;16.50;94.30;;;;;;4974215;28;20186;-89
2023/10/03 00:04:09;;;;;;;48.85;30.48;;;16.50;94.30;;;;;;4974411;28;20190;-89
2023/10/03 00:06:36;;;;;;;46.08;27.60;;;16.50;94.30;;;;;;4972630;28;20729;-89
2023/10/03 00:09:02;;;;;;;49.53;28.23;;;16.50;94.20;;;;;;4972160;28;20186;-90
2023/10/03 00:11:27;;;;;;;48.58;29.55;;;16.50;94.20;;;;;;4975660;28;20179;-90
2023/10/03 00:13:53;;;;;;;46.53;28.17;;;16.50;94.20;;;;;;4975859;28;20221;-90
2023/10/03 00:16:21;;;;;;;48.83;28.10;;;16.50;94.20;;;;;;4975497;28;20293;-90
2023/10/03 00:18:47;;;;;;;43.03;27.10;;;16.50;94.20;;;;;;4975494;28;20266;-89
2023/10/03 00:21:12;;;;;;;48.97;29.05;;;16.50;94.10;;;;;;4976244;28;20213;-88
2023/10/03 00:23:38;;;;;;;45.75;28.27;;;16.50;94.20;;;;;;4975398;28;20201;-88
2023/10/03 00:26:07;;;;;;;51.33;28.63;;;16.50;94.10;;;;;;4976499;28;20225;-87
2023/10/03 00:28:33;;;;;;;42.92;27.30;;;16.50;94.10;;;;;;4975299;28;20189;-89
2023/10/03 00:30:59;;;;;;;41.28;27.75;;;16.50;94.10;;;;;;4975353;28;20183;-89
2023/10/03 00:33:26;;;;;;;48.97;27.45;;;16.40;94.10;;;;;;4975546;28;20224;-90
2023/10/03 00:35:55;;;;;;;40.00;27.92;;;16.40;94.10;;;;;;4975165;28;20213;-90
2023/10/03 00:38:22;;;;;;;43.83;27.88;;;16.40;94.00;;;;;;4975196;28;20211;-90
2023/10/03 00:40:49;;;;;;;46.17;27.77;;;16.30;94.00;;;;;;4976375;28;20177;-91
2023/10/03 00:43:15;;;;;;;45.08;28.42;;;16.30;94.00;;;;;;4975091;28;20183;-90
2023/10/03 00:45:42;;;;;;;41.67;26.63;;;16.30;94.00;;;;;;4976904;28;20203;-90
2023/10/03 00:48:08;;;;;;;40.63;27.77;;;16.20;94.00;;;;;;4978719;28;20186;-91
2023/10/03 00:50:35;;;;;;;44.78;27.25;;;16.20;93.90;;;;;;4978319;28;20182;-91
2023/10/03 00:53:08;;;;;;;41.13;27.52;;;16.20;94.00;;;;;;4977771;28;20233;-90
2023/10/03 00:55:39;;;;;;;40.65;28.20;;;16.20;94.00;;;;;;4978112;28;20391;-91
2023/10/03 00:58:06;;;;;;;42.10;28.25;;;16.20;94.00;;;;;;4977441;28;20175;-91
2023/10/03 01:00:41;;;;;;;40.40;29.33;;;16.30;93.90;;;;;;4977700;28;20175;-90
2023/10/03 01:03:30;;;;;;;41.22;28.23;;;16.20;93.90;;;;;;4977881;28;20253;-91
2023/10/03 01:05:58;;;;;;;42.97;27.67;;;16.20;93.90;;;;;;4941334;28;1078157;-90
2023/10/03 01:08:24;;;;;;;43.80;28.45;;;16.20;93.90;;;;;;4980206;28;20186;-91
2023/10/03 01:10:51;;;;;;;44.55;28.27;;;16.20;93.90;;;;;;4980442;28;20186;-91
2023/10/03 01:13:19;;;;;;;44.63;28.70;;;16.10;93.80;;;;;;4979874;28;20189;-91
2023/10/03 01:15:49;;;;;;;39.17;26.55;;;16.00;93.80;;;;;;4979776;28;20269;-91
2023/10/03 01:18:20;;;;;;;41.83;28.27;;;16.00;93.80;;;;;;4980448;28;20197;-91
2023/10/03 01:20:48;;;;;;;44.67;27.30;;;16.00;93.90;;;;;;4980230;28;20175;-91
2023/10/03 01:23:15;;;;;;;40.08;27.55;;;16.00;93.90;;;;;;4979185;28;20175;-91
2023/10/03 01:25:44;;;;;;;40.67;27.45;;;16.00;93.90;;;;;;4979189;28;20199;-91
2023/10/03 01:28:10;;;;;;;38.65;25.50;;;16.00;93.90;;;;;;4979728;28;20183;-91
2023/10/03 01:30:37;;;;;;;38.45;26.58;;;16.00;93.90;;;;;;4978975;28;20175;-91
2023/10/03 01:33:03;;;;;;;34.25;25.83;;;16.00;93.90;;;;;;4978806;28;20209;-91
2023/10/03 01:35:28;;;;;;;38.95;26.15;;;16.00;93.90;;;;;;4980604;28;20206;-91
2023/10/03 01:37:54;;;;;;;44.28;28.52;;;15.90;93.70;;;;;;4978780;28;20185;-91
2023/10/03 01:40:20;;;;;;;39.83;27.55;;;15.70;93.70;;;;;;4979489;28;20175;-90
2023/10/03 01:42:47;;;;;;;42.05;30.20;;;15.70;93.60;;;;;;4977757;28;20175;-90
2023/10/03 01:45:19;;;;;;;44.80;30.10;;;15.70;93.50;;;;;;4978137;28;20206;-90
2023/10/03 01:47:47;;;;;;;47.10;31.45;;;15.70;93.50;;;;;;4978520;28;20182;-91
2023/10/03 01:50:14;;;;;;;47.85;32.00;;;15.70;93.50;;;;;;4978211;28;20179;-91
2023/10/03 01:52:40;;;;;;;43.55;30.83;;;15.70;93.50;;;;;;4979764;28;20183;-92
2023/10/03 01:55:13;;;;;;;54.90;31.02;;;15.70;93.50;;;;;;4978377;28;20277;-91
2023/10/03 01:57:40;;;;;;;46.17;31.60;;;15.70;93.50;;;;;;4980449;28;20643;-92
2023/10/03 02:00:20;;;;;;;45.83;30.15;;;15.60;93.60;;;;;;4977641;28;20183;-91
2023/10/03 02:02:49;;;;;;;43.97;32.08;;;15.60;93.60;;;;;;4978622;28;20174;-90
2023/10/03 02:05:15;;;;;;;52.60;30.55;;;15.60;93.70;;;;;;4977767;28;20218;-90
2023/10/03 02:07:43;;;;;;;40.05;28.50;;;15.60;93.80;;;;;;4976955;28;20523;-91
2023/10/03 02:10:12;;;;;;;42.97;28.95;;;15.60;93.80;;;;;;4977154;28;20237;-91
2023/10/03 02:12:39;;;;;;;46.35;30.50;;;15.60;93.90;;;;;;4976234;28;20183;-91
2023/10/03 02:15:09;;;;;;;44.95;29.35;;;15.60;93.90;;;;;;4976313;28;20206;-92
2023/10/03 02:17:35;;;;;;;42.95;28.63;;;15.60;93.90;;;;;;4976383;28;20662;-90
2023/10/03 02:20:01;;;;;;;41.35;29.52;;;15.60;94.00;;;;;;4977543;28;20183;-91
2023/10/03 02:22:27;;;;;;;44.30;29.33;;;15.60;94.00;;;;;;4977572;28;20669;-91
2023/10/03 02:24:52;;;;;;;43.00;29.65;;;15.60;94.10;;;;;;4976786;28;20206;-91
2023/10/03 02:27:18;;;;;;;49.03;31.50;;;15.70;94.20;;;;;;4977366;28;20233;-91
2023/10/03 02:29:44;;;;;;;52.40;31.60;;;15.70;94.10;;;;;;4976975;28;20550;-91
2023/10/03 02:32:10;;;;;;;46.03;30.92;;;15.70;94.20;;;;;;4978295;28;20177;-91
2023/10/03 02:34:36;;;;;;;46.28;31.00;;;15.80;94.30;;;;;;4976018;28;20203;-89
2023/10/03 02:37:01;;;;;;;51.03;30.35;;;15.80;94.30;;;;;;4977055;28;20225;-92
2023/10/03 02:39:35;;;;;;;52.80;30.08;;;15.90;94.40;;;;;;4976387;28;20182;-91
2023/10/03 02:42:01;;;;;;;48.95;30.48;;;15.90;94.40;;;;;;4976617;28;20167;-91
2023/10/03 02:44:27;;;;;;;48.53;30.92;;;16.00;94.50;;;;;;4976819;28;20578;-91
2023/10/03 02:46:53;;;;;;;49.22;30.48;;;16.00;94.50;;;;;;4976575;28;20246;-92
2023/10/03 02:49:18;;;;;;;41.88;28.17;;;16.20;94.60;;;;;;4978793;28;20261;-91
2023/10/03 02:51:44;;;;;;;47.20;28.70;;;16.10;94.50;;;;;;4976183;28;20183;-91
2023/10/03 02:54:10;;;;;;;44.85;28.73;;;16.10;94.50;;;;;;4975607;28;20675;-91
2023/10/03 02:56:35;;;;;;;43.28;28.35;;;16.20;94.50;;;;;;4976240;28;20632;-91
2023/10/03 02:59:02;;;;;;;39.83;27.08;;;16.20;94.50;;;;;;4975432;28;20177;-91
2023/10/03 03:01:31;;;;;;;41.50;27.75;;;16.20;94.50;;;;;;4975007;28;20592;-91
2023/10/03 03:03:56;;;;;;;36.47;26.02;;;16.20;94.50;;;;;;4975335;28;20195;-91
2023/10/03 03:06:22;;;;;;;39.13;26.08;;;16.20;94.50;;;;;;4976315;28;20205;-91
2023/10/03 03:08:48;;;;;;;40.85;25.30;;;16.20;94.40;;;;;;4975232;28;20189;-91
2023/10/03 03:11:13;;;;;;;36.33;25.65;;;16.20;94.40;;;;;;4975551;28;20183;-92
2023/10/03 03:13:39;;;;;;;31.83;23.42;;;16.20;94.40;;;;;;4975296;28;20171;-91
2023/10/03 03:16:06;;;;;;;36.65;24.40;;;16.30;94.40;;;;;;4975190;28;20253;-90
2023/10/03 03:18:40;;;;;;;36.88;25.05;;;16.30;94.40;;;;;;4975922;28;20505;-91
2023/10/03 03:21:13;;;;;;;33.88;22.98;;;16.30;94.40;;;;;;4976576;28;20151;-91
2023/10/03 03:23:42;;;;;;;34.33;23.50;;;16.30;94.30;;;;;;4975640;28;20229;-91
2023/10/03 03:28:38;;;;;;;27.95;21.70;;;16.30;94.20;;;;;;4976870;28;20175;-91
2023/10/03 03:31:20;;;;;;;32.85;23.75;;;16.20;94.20;;;;;;4975794;28;20182;-91
2023/10/03 03:33:46;;;;;;;32.15;22.23;;;16.30;94.20;;;;;;4975363;28;20171;-91
2023/10/03 03:36:20;;;;;;;30.70;23.23;;;16.20;94.20;;;;;;4975557;28;20209;-91
2023/10/03 03:38:47;;;;;;;33.53;22.38;;;16.10;94.20;;;;;;4975654;28;20662;-91
2023/10/03 03:41:13;;;;;;;35.25;22.45;;;16.10;94.20;;;;;;4975411;28;20513;-91
2023/10/03 03:43:39;;;;;;;32.75;22.83;;;16.20;94.20;;;;;;4975073;28;20182;-91
2023/10/03 03:46:05;;;;;;;27.90;21.90;;;16.20;94.20;;;;;;4974611;28;20187;-91
2023/10/03 03:48:34;;;;;;;27.10;20.90;;;16.30;94.30;;;;;;4977466;28;20548;-91
2023/10/03 03:51:06;;;;;;;34.80;20.92;;;16.30;94.30;;;;;;4976734;28;20542;-91
2023/10/03 03:53:33;;;;;;;27.10;21.40;;;16.30;94.10;;;;;;4976037;28;20238;-92
2023/10/03 03:56:07;;;;;;;34.15;21.10;;;16.20;94.00;;;;;;4975818;28;20203;-91
2023/10/03 03:58:34;;;;;;;30.92;19.88;;;16.20;94.10;;;;;;4976807;28;20170;-91
2023/10/03 04:01:00;;;;;;;25.63;19.42;;;16.20;94.00;;;;;;4976141;28;20175;-91
2023/10/03 04:03:29;;;;;;;25.73;19.38;;;16.20;94.00;;;;;;4976387;28;20178;-91
2023/10/03 04:05:57;;;;;;;26.98;21.23;;;16.20;93.90;;;;;;4976453;28;20214;-91
2023/10/03 04:08:23;;;;;;;24.25;18.52;;;16.10;93.90;;;;;;4976411;28;20202;-91
2023/10/03 04:10:49;;;;;;;26.20;19.27;;;16.20;93.90;;;;;;4975167;28;20175;-91
2023/10/03 04:13:17;;;;;;;23.60;18.98;;;16.20;93.90;;;;;;4975847;28;20262;-91
2023/10/03 04:15:44;;;;;;;28.13;18.67;;;16.20;93.80;;;;;;4976433;28;20225;-91
2023/10/03 04:18:10;;;;;;;29.77;19.92;;;16.20;93.70;;;;;;4975659;28;20242;-91
2023/10/03 04:20:39;;;;;;;24.05;18.77;;;16.20;93.60;;;;;;4975520;28;20229;-91
2023/10/03 04:23:07;;;;;;;27.08;19.65;;;16.20;93.50;;;;;;4976182;28;20182;-91
2023/10/03 04:25:33;;;;;;;25.05;19.30;;;16.20;93.40;;;;;;4975607;28;20202;-91
2023/10/03 04:28:00;;;;;;;24.70;19.80;;;16.20;93.40;;;;;;4974886;28;20183;-91
2023/10/03 04:30:27;;;;;;;25.02;18.55;;;16.20;93.20;;;;;;4974280;28;20262;-91
2023/10/03 04:32:54;;;;;;;22.80;18.48;;;16.30;93.10;;;;;;4974409;28;20243;-91
2023/10/03 04:35:20;;;;;;;25.23;19.00;;;16.30;92.90;;;;;;4974331;28;20230;-90
2023/10/03 04:37:51;;;;;;;23.88;19.05;;;16.30;92.60;;;;;;4974215;28;20209;-91
2023/10/03 04:40:28;;;;;;;24.13;18.27;;;16.30;92.50;;;;;;4958679;28;20170;-91
2023/10/03 04:42:58;;;;;;;24.85;19.13;;;16.30;92.40;;;;;;4974990;28;20173;-91
2023/10/03 04:45:25;;;;;;;26.70;18.70;;;16.30;92.40;;;;;;4974322;28;20297;-90
2023/10/03 04:47:52;;;;;;;30.20;18.58;;;16.30;92.20;;;;;;4974539;28;20194;-89
2023/10/03 04:50:21;;;;;;;26.20;18.33;;;16.30;92.10;;;;;;4974711;28;20186;-91
2023/10/03 04:52:49;;;;;;;28.23;17.55;;;16.20;92.00;;;;;;4974843;28;20179;-91
2023/10/03 04:55:18;;;;;;;22.95;17.17;;;16.20;91.90;;;;;;4974351;28;20213;-91
2023/10/03 04:57:49;;;;;;;23.67;17.55;;;16.20;91.80;;;;;;4978473;28;20171;-91
2023/10/03 05:00:16;;;;;;;25.08;17.50;;;16.20;91.80;;;;;;4978442;28;20175;-91
2023/10/03 05:02:49;;;;;;;24.55;16.92;;;16.20;91.70;;;;;;4978824;28;20178;-90
2023/10/03 05:05:25;;;;;;;24.50;17.27;;;16.20;91.60;;;;;;4977855;28;20310;-90
2023/10/03 05:07:52;;;;;;;27.40;17.98;;;16.30;91.30;;;;;;4977985;28;20190;-91
2023/10/03 05:10:19;;;;;;;27.33;18.08;;;16.20;91.10;;;;;;4977585;28;20178;-91
2023/10/03 05:12:45;;;;;;;26.85;18.27;;;16.30;90.90;;;;;;4978840;28;20413;-91
2023/10/03 05:15:12;;;;;;;27.73;18.98;;;16.30;90.70;;;;;;4977604;28;20708;-91
2023/10/03 05:17:38;;;;;;;28.85;19.00;;;16.30;90.40;;;;;;4978220;28;20210;-91
2023/10/03 05:20:05;;;;;;;26.77;19.25;;;16.30;90.30;;;;;;4978227;28;20167;-91
2023/10/03 05:22:31;;;;;;;29.05;18.25;;;16.30;90.20;;;;;;4978555;28;20678;-91
2023/10/03 05:24:58;;;;;;;29.33;19.00;;;16.30;90.10;;;;;;4977932;28;20218;-91
2023/10/03 05:27:23;;;;;;;27.73;19.67;;;16.30;89.90;;;;;;4979953;28;20181;-90
2023/10/03 05:29:49;;;;;;;28.48;19.05;;;16.40;89.50;;;;;;4979662;28;20182;-90
2023/10/03 05:32:17;;;;;;;27.30;19.42;;;16.40;89.30;;;;;;4977613;28;20685;-91
2023/10/03 05:34:43;;;;;;;28.45;18.90;;;16.40;89.30;;;;;;4978349;28;20811;-91
2023/10/03 05:37:08;;;;;;;25.58;19.02;;;16.40;89.30;;;;;;4979217;28;20263;-91
2023/10/03 05:39:34;;;;;;;27.35;18.25;;;16.40;89.10;;;;;;4981532;28;20171;-90
2023/10/03 05:42:00;;;;;;;26.70;18.88;;;16.40;89.10;;;;;;4980988;28;20187;-90
2023/10/03 05:44:25;;;;;;;28.48;18.30;;;16.40;89.20;;;;;;4978137;28;20198;-91
2023/10/03 05:46:58;;;;;;;31.00;20.42;;;16.40;89.20;;;;;;4978399;28;20194;-90
2023/10/03 05:49:24;;;;;;;33.03;19.02;;;16.40;89.20;;;;;;4979322;28;20540;-90
2023/10/03 05:51:55;;;;;;;30.73;19.60;;;16.40;89.20;;;;;;4977008;28;20229;-90
2023/10/03 05:54:23;;;;;;;28.83;19.95;;;16.40;89.30;;;;;;4978077;28;20250;-91
2023/10/03 05:56:49;;;;;;;32.67;18.65;;;16.40;89.40;;;;;;4982134;28;20202;-90
2023/10/03 05:59:15;;;;;;;31.50;19.67;;;16.50;89.20;;;;;;4978347;28;20171;-91
2023/10/03 06:01:42;;;;;;;23.98;17.27;;;16.40;89.20;;;;;;4976647;28;20229;-91
2023/10/03 06:04:08;;;;;;;30.30;19.90;;;16.40;89.40;;;;;;4976747;28;20203;-91
2023/10/03 06:06:33;;;;;;;27.08;18.95;;;16.50;89.30;;;;;;4976422;28;20666;-91
2023/10/03 06:08:59;;;;;;;27.27;19.27;;;16.50;89.20;;;;;;4975760;28;20540;-91
2023/10/03 06:11:24;;;;;;;33.58;19.85;;;16.50;89.30;;;;;;4976628;28;20179;-91
2023/10/03 06:13:50;;;;;;;35.25;21.08;;;16.50;89.40;;;;;;4976796;28;20280;-91
2023/10/03 06:16:15;;;;;;;29.40;19.98;;;16.50;89.30;;;;;;4977346;28;20281;-90
2023/10/03 06:18:41;;;;;;;33.25;20.48;;;16.50;89.20;;;;;;4978553;28;20187;-90
2023/10/03 06:21:08;;;;;;;34.42;20.67;;;16.60;89.20;;;;;;4977640;28;20182;-91
2023/10/03 06:23:35;;;;;;;36.83;20.05;;;16.60;89.10;;;;;;4978180;28;20530;-91
2023/10/03 06:26:01;;;;;;;28.02;19.70;;;16.70;89.00;;;;;;4979945;28;20202;-91
2023/10/03 06:28:28;;;;;;;29.90;20.38;;;16.80;88.70;;;;;;4983405;28;20182;-91
2023/10/03 06:30:54;;;;;;;29.50;19.67;;;16.90;88.20;;;;;;4979793;28;20205;-92
2023/10/03 06:33:20;;;;;;;33.95;21.58;;;17.20;87.30;;;;;;4976631;28;20659;-90
2023/10/03 06:35:48;;;;;;;29.35;20.38;;;17.30;87.10;;;;;;4976335;28;20207;-91
2023/10/03 06:38:14;;;;;;;32.67;20.85;;;17.40;86.80;;;;;;4976718;28;20198;-91
2023/10/03 06:40:41;;;;;;;33.45;21.00;;;17.60;85.90;;;;;;4977942;28;20235;-91
2023/10/03 06:43:06;;;;;;;30.63;20.30;;;17.80;85.40;;;;;;4976825;28;20179;-91
2023/10/03 06:45:32;;;;;;;30.40;21.27;;;17.80;85.10;;;;;;4976162;28;20685;-91
2023/10/03 06:48:02;;;;;;;34.42;21.73;;;17.90;85.10;;;;;;4977717;28;20263;-92
2023/10/03 06:50:28;;;;;;;30.05;21.35;;;18.00;84.80;;;;;;4978646;28;20621;-90
2023/10/03 06:52:53;;;;;;;33.60;22.45;;;18.20;84.30;;;;;;4977685;28;20198;-91
2023/10/03 06:55:19;;;;;;;31.27;22.38;;;18.10;84.40;;;;;;4977422;28;20289;-91
2023/10/03 06:57:45;;;;;;;26.92;20.92;;;18.20;84.50;;;;;;4982123;28;20280;-91
2023/10/03 07:00:14;;;;;;;33.28;21.58;;;18.20;84.60;;;;;;4979711;28;20238;-90
2023/10/03 07:02:40;;;;;;;30.63;21.88;;;18.30;84.60;;;;;;4982489;28;20186;-91
2023/10/03 07:05:10;;;;;;;31.38;22.55;;;18.20;84.50;;;;;;4984508;28;20210;-91
2023/10/03 07:07:36;;;;;;;29.88;21.85;;;18.20;84.60;;;;;;4983232;28;20194;-91
2023/10/03 07:10:04;;;;;;;33.25;22.02;;;18.40;84.30;;;;;;4981735;28;20186;-91
2023/10/03 07:12:29;;;;;;;32.15;22.70;;;18.30;84.60;;;;;;4981646;28;20677;-90
2023/10/03 07:14:55;;;;;;;28.27;22.02;;;18.40;84.40;;;;;;4977040;28;20202;-91
2023/10/03 07:17:21;;;;;;;30.13;22.70;;;18.50;84.60;;;;;;4979661;28;20202;-89
2023/10/03 07:19:48;;;;;;;31.67;22.88;;;18.50;84.30;;;;;;4976827;28;20170;-89
2023/10/03 07:22:14;;;;;;;30.45;21.90;;;18.60;84.20;;;;;;4976131;28;20265;-89
2023/10/03 07:24:40;;;;;;;33.22;21.65;;;18.70;84.00;;;;;;4984454;28;20202;-91
2023/10/03 07:27:07;;;;;;;25.33;17.55;;;18.70;84.10;;;;;;4984937;28;20193;-91
2023/10/03 07:29:35;;;;;;;28.25;21.73;;;18.80;83.80;;;;;;4980551;28;20185;-91
2023/10/03 07:32:02;;;;;;;31.02;21.77;;;18.90;83.80;;;;;;4979356;28;20174;-91
2023/10/03 07:34:28;;;;;;;35.40;20.27;;;19.00;83.40;;;;;;4979805;28;20194;-91
2023/10/03 07:36:53;;;;;;;38.70;22.65;;;19.00;83.20;;;;;;4980220;28;20257;-91
2023/10/03 07:39:20;;;;;;;37.92;22.42;;;19.10;83.30;;;;;;4982366;28;20198;-91
2023/10/03 07:41:51;;;;;;;26.08;19.02;;;19.10;83.40;;;;;;4978261;28;20174;-90
2023/10/03 07:44:17;;;;;;;29.58;20.40;;;19.10;83.60;;;;;;4977020;28;20193;-91
2023/10/03 07:46:43;;;;;;;31.13;22.55;;;19.20;83.60;;;;;;4980050;28;20179;-91
2023/10/03 07:49:09;;;;;;;31.63;21.63;;;19.20;83.80;;;;;;4977773;28;20182;-92
2023/10/03 07:51:35;;;;;;;27.25;20.95;;;19.20;84.10;;;;;;4978451;28;20655;-90
2023/10/03 07:54:02;;;;;;;32.70;20.52;;;19.30;84.20;;;;;;4978916;28;20198;-89
2023/10/03 07:56:30;;;;;;;29.58;20.90;;;19.30;83.90;;;;;;4978668;28;20199;-91
2023/10/03 07:59:01;;;;;;;31.92;22.27;;;19.40;83.70;;;;;;4980732;28;20170;-90
2023/10/03 08:01:27;;;;;;;30.55;22.30;;;19.50;83.80;;;;;;4979063;28;20163;-91
2023/10/03 08:03:57;;;;;;;34.55;21.80;;;19.50;83.20;;;;;;4980407;28;20202;-91
2023/10/03 08:06:25;;;;;;;30.60;21.23;;;19.50;83.80;;;;;;4978767;28;20198;-91
2023/10/03 08:08:59;;;;;;;34.03;21.77;;;19.60;83.80;;;;;;4978768;28;20206;-91
2023/10/03 08:11:28;;;;;;;31.90;22.02;;;19.70;83.70;;;;;;4975908;28;20631;-90
2023/10/03 08:13:55;;;;;;;28.90;19.77;;;19.80;82.90;;;;;;4975236;28;20205;-90
2023/10/03 08:16:22;;;;;;;32.92;21.08;;;19.80;82.70;;;;;;4978370;28;20198;-90
2023/10/03 08:18:57;;;;;;;36.13;21.00;;;19.90;82.90;;;;;;4976232;28;20175;-90
2023/10/03 08:21:28;;;;;;;29.20;21.13;;;20.00;83.00;;;;;;4975181;28;20177;-91
2023/10/03 08:23:58;;;;;;;30.90;20.35;;;20.00;83.50;;;;;;4977386;28;20195;-91
2023/10/03 08:26:25;;;;;;;36.78;21.67;;;20.10;83.00;;;;;;4974125;28;20647;-90
2023/10/03 08:29:04;;;;;;;29.48;20.67;;;20.00;82.40;;;;;;4973806;28;20237;-91
2023/10/03 08:31:31;;;;;;;30.60;20.20;;;19.90;82.50;;;;;;4976051;28;20167;-91
2023/10/03 08:33:56;;;;;;;27.60;20.00;;;19.80;83.20;;;;;;4978846;28;20613;-90
2023/10/03 08:36:37;;;;;;;28.08;20.92;;;19.80;83.10;;;;;;4978421;28;20190;-91
2023/10/03 08:39:12;;;;;;;30.77;20.17;;;19.90;83.70;;;;;;4976667;28;20174;-91
2023/10/03 08:41:46;;;;;;;27.60;20.70;;;20.10;82.90;;;;;;4976620;28;20167;-90
2023/10/03 08:44:12;;;;;;;32.60;19.65;;;20.10;83.20;;;;;;4978465;28;20282;-91
2023/10/03 08:46:48;;;;;;;28.08;17.90;;;20.10;83.10;;;;;;4976672;28;20551;-89
2023/10/03 08:49:17;;;;;;;25.70;18.95;;;20.20;82.10;;;;;;4977500;28;20163;-89
2023/10/03 08:51:45;;;;;;;26.27;19.10;;;20.20;81.90;;;;;;4977487;28;20599;-89
2023/10/03 08:54:12;;;;;;;28.40;18.73;;;20.20;81.80;;;;;;4976133;28;20198;-89
2023/10/03 08:56:41;;;;;;;25.50;16.10;;;20.20;82.40;;;;;;4977292;28;20186;-88
2023/10/03 08:59:09;;;;;;;28.48;19.42;;;20.20;81.80;;;;;;4977355;28;20317;-88
2023/10/03 09:01:38;;;;;;;28.88;18.55;;;20.20;81.90;;;;;;4976133;28;20175;-89
2023/10/03 09:04:08;;;;;;;24.02;17.83;;;20.30;82.10;;;;;;4977016;28;20206;-89
2023/10/03 09:06:38;;;;;;;24.55;17.92;;;20.30;81.30;;;;;;4977097;28;20680;-89
2023/10/03 09:09:08;;;;;;;23.58;17.90;;;20.30;81.20;;;;;;4976005;28;20651;-89
2023/10/03 09:11:37;;;;;;;17.38;15.65;;;20.20;80.30;;;;;;4977098;28;20198;-87
2023/10/03 09:14:04;;;;;;;28.60;18.63;;;20.40;79.80;;;;;;4976924;28;20195;-88
2023/10/03 09:16:30;;;;;;;20.45;17.10;;;20.70;79.70;;;;;;4976984;28;20195;-88
2023/10/03 09:19:00;;;;;;;21.65;16.27;;;20.70;79.50;;;;;;4977215;28;20247;-88
2023/10/03 09:21:27;;;;;;;19.70;16.88;;;20.70;79.30;;;;;;4975700;28;20167;-89
2023/10/03 09:24:12;;;;;;;25.17;16.10;;;20.60;80.20;;;;;;4976839;28;20667;-87
2023/10/03 09:26:54;;;;;;;17.13;15.27;;;20.50;79.50;;;;;;4976104;28;20179;-88
2023/10/03 09:29:31;;;;;;;18.88;15.35;;;20.50;79.10;;;;;;4975723;28;20171;-87
2023/10/03 09:32:24;;;;;;;24.10;15.05;;;20.50;79.10;;;;;;4975538;28;20528;-89
2023/10/03 09:35:09;;;;;;;19.38;15.18;;;20.40;78.70;;;;;;4975454;28;20631;-90
2023/10/03 09:37:35;;;;;;;30.30;16.02;;;20.40;79.20;;;;;;4975527;28;20175;-89
2023/10/03 09:40:01;;;;;;;20.02;14.88;;;20.30;79.70;;;;;;4976853;28;20170;-90
2023/10/03 09:42:30;;;;;;;15.10;13.60;;;20.30;79.70;;;;;;4975228;28;20267;-90
2023/10/03 09:44:58;;;;;;;16.55;14.35;;;20.20;79.30;;;;;;4975561;28;20198;-91
2023/10/03 09:47:32;;;;;;;17.40;14.73;;;20.20;78.30;;;;;;4975513;28;20181;-90
2023/10/03 09:50:03;;;;;;;15.85;14.18;;;20.20;78.60;;;;;;4975245;28;20266;-89
2023/10/03 09:52:32;;;;;;;20.38;13.70;;;20.10;79.70;;;;;;4975108;28;20243;-90
2023/10/03 09:55:17;;;;;;;18.55;14.15;;;20.00;79.60;;;;;;4974965;28;20201;-89
2023/10/03 09:57:45;;;;;;;18.00;14.63;;;20.00;79.40;;;;;;4975154;28;20171;-89
2023/10/03 10:00:23;;;;;;;20.58;14.25;;;20.00;79.40;;;;;;4975034;28;20183;-89
2023/10/03 10:02:54;;;;;;;16.63;12.73;;;20.00;79.90;;;;;;4976172;28;20665;-90
2023/10/03 10:05:22;;;;;;;17.10;12.00;;;19.60;81.80;;;;;;4974943;28;20225;-89
2023/10/03 10:08:06;;;;;;;14.13;11.35;;;19.50;82.80;;;;;;4974899;28;20609;-89
2023/10/03 10:10:34;;;;;;;19.35;12.88;;;19.40;83.10;;;;;;4975584;28;20179;-90
2023/10/03 10:13:14;;;;;;;18.42;12.48;;;19.40;83.00;;;;;;4975854;28;20193;-91
2023/10/03 10:16:01;;;;;;;13.85;11.32;;;19.30;83.70;;;;;;4975280;28;20296;-87
2023/10/03 10:18:45;;;;;;;15.20;11.95;;;19.30;83.50;;;;;;4975892;28;20546;-90
2023/10/03 10:21:36;;;;;;;16.15;12.13;;;19.30;83.40;;;;;;4974647;28;20179;-90
2023/10/03 10:24:13;;;;;;;13.13;10.38;;;19.30;83.80;;;;;;4974484;28;20203;-88
2023/10/03 10:26:39;;;;;;;15.90;9.00;;;19.10;85.20;;;;;;4974441;28;20265;-89
2023/10/03 10:29:08;;;;;;;21.15;8.23;;;18.80;86.70;;;;;;4975698;28;20179;-88
2023/10/03 10:31:42;;;;;;;19.05;8.13;;;18.40;88.20;;;;;;4975746;28;20625;-88
2023/10/03 10:34:20;;;;;;;10.75;6.60;;;18.30;88.90;;;;;;4974393;28;20715;-88
2023/10/03 10:37:04;;;;;;;9.25;6.80;;;18.20;89.40;;;;;;4974301;28;20230;-88
2023/10/03 10:39:56;;;;;;;7.72;6.03;;;18.20;89.60;;;;;;4975611;28;20245;-89
2023/10/03 10:42:25;;;;;;;11.60;6.80;;;18.20;89.70;;;;;;4967968;28;20725;-89
2023/10/03 10:45:13;;;;;;;11.05;6.10;;;18.20;89.70;;;;;;4975290;28;20257;-89
2023/10/03 10:47:49;;;;;;;9.52;6.60;;;18.20;89.90;;;;;;4975593;28;20157;-89
2023/10/03 10:50:17;;;;;;;8.10;5.50;;;18.20;90.30;;;;;;4975300;28;20178;-89
2023/10/03 10:52:51;;;;;;;9.38;6.65;;;18.10;90.90;;;;;;4974034;28;20179;-91
2023/10/03 10:55:17;;;;;;;9.65;6.95;;;18.00;91.30;;;;;;4974618;28;20712;-89
2023/10/03 10:57:43;;;;;;;11.75;7.57;;;18.00;91.60;;;;;;4975121;28;20257;-89
2023/10/03 11:00:22;;;;;;;15.18;7.78;;;18.10;91.20;;;;;;4974466;28;20258;-90
2023/10/03 11:02:48;;;;;;;12.60;7.03;;;18.10;90.90;;;;;;4974148;28;20178;-89
2023/10/03 11:05:13;;;;;;;13.63;7.00;;;18.00;89.90;;;;;;4973687;28;20214;-89
2023/10/03 11:07:53;;;;;;;11.15;6.75;;;18.10;89.40;;;;;;4973711;28;20175;-89
2023/10/03 11:10:21;;;;;;;9.25;6.35;;;18.10;89.30;;;;;;4973875;28;20262;-90
2023/10/03 11:12:57;;;;;;;16.17;6.88;;;18.00;88.90;;;;;;4973827;28;20190;-88
2023/10/03 11:15:23;;;;;;;16.48;7.18;;;18.00;88.90;;;;;;4973621;28;20269;-91
2023/10/03 11:17:49;;;;;;;15.10;6.70;;;17.80;88.40;;;;;;4974818;28;20241;-90
2023/10/03 11:20:16;;;;;;;15.13;6.28;;;17.50;89.90;;;;;;4973831;28;20605;-88
2023/10/03 11:22:44;;;;;;;12.55;6.25;;;17.30;90.30;;;;;;4973781;28;20181;-91
2023/10/03 11:25:11;;;;;;;14.68;6.00;;;17.20;89.60;;;;;;4975168;28;20190;-90
2023/10/03 11:27:37;;;;;;;16.85;6.22;;;17.20;89.40;;;;;;4974082;28;20186;-91
2023/10/03 11:30:16;;;;;;;12.60;6.10;;;17.20;89.20;;;;;;4975095;28;20557;-89
2023/10/03 11:32:43;;;;;;;16.52;6.55;;;17.30;89.30;;;;;;4975897;28;20201;-90
2023/10/03 11:35:17;;;;;;;10.38;6.03;;;17.30;88.40;;;;;;4973688;28;20249;-88
2023/10/03 11:37:44;;;;;;;16.08;6.40;;;17.30;88.00;;;;;;4974626;28;20197;-87
2023/10/03 11:40:20;;;;;;;9.60;5.40;;;17.20;88.10;;;;;;4974602;28;20167;-89
2023/10/03 11:43:04;;;;;;;11.43;5.30;;;16.90;89.40;;;;;;4973294;28;20178;-89
2023/10/03 11:45:32;;;;;;;11.23;4.88;;;16.70;90.60;;;;;;4973218;28;20202;-89
2023/10/03 11:48:07;;;;;;;4.90;4.40;;;16.60;91.10;;;;;;4974428;28;20179;-88
2023/10/03 11:50:36;;;;;;;8.45;4.50;;;16.50;91.20;;;;;;4973354;28;20273;-89
2023/10/03 11:53:02;;;;;;;9.73;4.20;;;16.40;91.40;;;;;;4974396;28;20552;-89
2023/10/03 11:55:31;;;;;;;9.43;4.20;;;16.30;91.40;;;;;;4973067;28;20777;-89
2023/10/03 11:57:57;;;;;;;6.47;4.13;;;16.40;91.70;;;;;;4973158;28;20233;-89
2023/10/03 12:00:24;;;;;;;5.72;4.10;;;16.30;91.40;;;;;;4973211;28;20688;-88
2023/10/03 12:02:51;;;;;;;6.45;4.95;;;16.20;91.70;;;;;;4974469;28;20273;-89
2023/10/03 12:05:16;;;;;;;6.85;5.05;;;15.80;90.80;;;;;;4972814;28;20309;-89
2023/10/03 12:07:51;;;;;;;7.93;4.65;;;15.70;90.70;;;;;;4977523;28;20213;-89
2023/10/03 12:10:18;;;;;;;8.27;4.70;;;15.70;90.50;;;;;;4976930;28;20193;-89
2023/10/03 12:12:44;;;;;;;8.07;4.90;;;15.70;90.20;;;;;;4976917;28;20190;-90
2023/10/03 12:15:14;;;;;;;8.73;5.22;;;15.70;90.00;;;;;;4976775;28;20237;-91
2023/10/03 12:17:46;;;;;;;11.77;5.55;;;15.80;90.10;;;;;;4978495;28;20579;-89
2023/10/03 12:20:13;;;;;;;9.43;5.55;;;16.00;89.80;;;;;;4977993;28;20159;-89
2023/10/03 12:22:43;;;;;;;9.52;5.78;;;16.00;89.50;;;;;;4976852;28;20207;-89
2023/10/03 12:25:14;;;;;;;8.63;5.53;;;16.10;89.40;;;;;;4976664;28;20281;-88
2023/10/03 12:27:41;;;;;;;10.20;5.22;;;16.10;88.90;;;;;;4977886;28;20171;-87
2023/10/03 12:30:10;;;;;;;12.63;6.03;;;16.20;88.90;;;;;;4976667;28;20175;-88
2023/10/03 12:32:38;;;;;;;11.57;5.82;;;16.20;88.80;;;;;;4976657;28;20175;-89
2023/10/03 12:35:08;;;;;;;10.93;6.15;;;16.20;88.60;;;;;;4977606;28;20551;-89
2023/10/03 12:37:34;;;;;;;14.98;6.30;;;16.20;88.10;;;;;;4978118;28;20174;-88
2023/10/03 12:40:08;;;;;;;14.90;6.35;;;16.20;88.20;;;;;;4977780;28;20193;-89